sensor_id;sensor_type;location;lat;lon;timestamp;P1;durP1;ratioP1;P2;durP2;ratioP2
40955;SDS011;26687;48.254;11.454;2023-04-25T00:00:04;1.40;;;1.30;;
40955;SDS011;26687;48.254;11.454;2023-04-25T00:03:06;1.45;;;1.35;;
40955;SDS011;26687;48.254;11.454;2023-04-25T00:06:08;1.85;;;1.30;;
40955;SDS011;26687;48.254;11.454;2023-04-25T00:09:08;1.97;;;1.50;;
40955;SDS011;26687;48.254;11.454;2023-04-25T00:12:10;1.60;;;1.50;;
40955;SDS011;26687;48.254;11.454;2023-04-25T00:15:10;1.92;;;1.40;;
40955;SDS011;26687;48.254;11.454;2023-04-25T00:18:11;2.22;;;1.50;;
40955;SDS011;26687;48.254;11.454;2023-04-25T00:21:11;1.38;;;1.25;;
40955;SDS011;26687;48.254;11.454;2023-04-25T00:24:11;1.40;;;1.30;;
40955;SDS011;26687;48.254;11.454;2023-04-25T00:27:12;2.63;;;1.65;;
40955;SDS011;26687;48.254;11.454;2023-04-25T00:30:12;1.60;;;1.33;;
40955;SDS011;26687;48.254;11.454;2023-04-25T00:33:12;2.40;;;1.50;;
40955;SDS011;26687;48.254;11.454;2023-04-25T00:36:13;1.87;;;1.60;;
40955;SDS011;26687;48.254;11.454;2023-04-25T00:39:13;2.30;;;1.60;;
40955;SDS011;26687;48.254;11.454;2023-04-25T00:42:13;1.85;;;1.75;;
40955;SDS011;26687;48.254;11.454;2023-04-25T00:45:14;2.95;;;1.60;;
40955;SDS011;26687;48.254;11.454;2023-04-25T00:48:15;1.50;;;1.40;;
40955;SDS011;26687;48.254;11.454;2023-04-25T00:51:16;2.70;;;1.70;;
40955;SDS011;26687;48.254;11.454;2023-04-25T00:54:19;1.52;;;1.42;;
40955;SDS011;26687;48.254;11.454;2023-04-25T00:57:19;1.63;;;1.40;;
40955;SDS011;26687;48.254;11.454;2023-04-25T01:00:20;1.60;;;1.43;;
40955;SDS011;26687;48.254;11.454;2023-04-25T01:03:20;2.10;;;1.50;;
40955;SDS011;26687;48.254;11.454;2023-04-25T01:06:20;1.73;;;1.40;;
40955;SDS011;26687;48.254;11.454;2023-04-25T01:09:22;1.50;;;1.30;;
40955;SDS011;26687;48.254;11.454;2023-04-25T01:12:23;1.42;;;1.30;;
40955;SDS011;26687;48.254;11.454;2023-04-25T01:15:23;1.42;;;1.30;;
40955;SDS011;26687;48.254;11.454;2023-04-25T01:18:23;1.63;;;1.53;;
40955;SDS011;26687;48.254;11.454;2023-04-25T01:21:23;1.50;;;1.25;;
40955;SDS011;26687;48.254;11.454;2023-04-25T01:24:26;1.70;;;1.40;;
40955;SDS011;26687;48.254;11.454;2023-04-25T01:27:26;1.80;;;1.58;;
40955;SDS011;26687;48.254;11.454;2023-04-25T01:30:27;2.60;;;1.30;;
40955;SDS011;26687;48.254;11.454;2023-04-25T01:33:27;1.53;;;1.40;;
40955;SDS011;26687;48.254;11.454;2023-04-25T01:36:27;1.70;;;1.43;;
40955;SDS011;26687;48.254;11.454;2023-04-25T01:39:28;2.08;;;1.65;;
40955;SDS011;26687;48.254;11.454;2023-04-25T01:42:28;1.85;;;1.33;;
40955;SDS011;26687;48.254;11.454;2023-04-25T01:45:28;1.20;;;1.10;;
40955;SDS011;26687;48.254;11.454;2023-04-25T01:48:28;2.20;;;1.40;;
40955;SDS011;26687;48.254;11.454;2023-04-25T01:51:29;1.63;;;1.43;;
40955;SDS011;26687;48.254;11.454;2023-04-25T01:54:29;1.88;;;1.67;;
40955;SDS011;26687;48.254;11.454;2023-04-25T01:57:30;1.83;;;1.27;;
40955;SDS011;26687;48.254;11.454;2023-04-25T02:00:30;1.77;;;1.52;;
40955;SDS011;26687;48.254;11.454;2023-04-25T02:03:30;1.52;;;1.30;;
40955;SDS011;26687;48.254;11.454;2023-04-25T02:06:31;1.48;;;1.38;;
40955;SDS011;26687;48.254;11.454;2023-04-25T02:09:31;2.47;;;1.60;;
40955;SDS011;26687;48.254;11.454;2023-04-25T02:12:31;2.28;;;1.30;;
40955;SDS011;26687;48.254;11.454;2023-04-25T02:15:31;1.80;;;1.60;;
40955;SDS011;26687;48.254;11.454;2023-04-25T02:18:32;1.50;;;1.40;;
40955;SDS011;26687;48.254;11.454;2023-04-25T02:21:33;1.77;;;1.40;;
40955;SDS011;26687;48.254;11.454;2023-04-25T02:24:35;2.47;;;1.50;;
40955;SDS011;26687;48.254;11.454;2023-04-25T02:27:35;3.47;;;1.50;;
40955;SDS011;26687;48.254;11.454;2023-04-25T02:30:36;1.38;;;1.25;;
40955;SDS011;26687;48.254;11.454;2023-04-25T02:33:36;1.70;;;1.30;;
40955;SDS011;26687;48.254;11.454;2023-04-25T02:36:36;1.45;;;1.35;;
40955;SDS011;26687;48.254;11.454;2023-04-25T02:39:36;1.50;;;1.30;;
40955;SDS011;26687;48.254;11.454;2023-04-25T02:42:36;3.33;;;1.60;;
40955;SDS011;26687;48.254;11.454;2023-04-25T02:45:37;4.55;;;1.95;;
40955;SDS011;26687;48.254;11.454;2023-04-25T02:48:37;1.50;;;1.40;;
40955;SDS011;26687;48.254;11.454;2023-04-25T02:51:37;2.70;;;1.57;;
40955;SDS011;26687;48.254;11.454;2023-04-25T02:54:38;1.83;;;1.43;;
40955;SDS011;26687;48.254;11.454;2023-04-25T02:57:38;3.00;;;1.60;;
40955;SDS011;26687;48.254;11.454;2023-04-25T03:00:38;2.53;;;1.50;;
40955;SDS011;26687;48.254;11.454;2023-04-25T03:03:39;3.65;;;1.48;;
40955;SDS011;26687;48.254;11.454;2023-04-25T03:06:39;1.35;;;1.20;;
40955;SDS011;26687;48.254;11.454;2023-04-25T03:09:39;1.83;;;1.60;;
40955;SDS011;26687;48.254;11.454;2023-04-25T03:12:40;1.67;;;1.33;;
40955;SDS011;26687;48.254;11.454;2023-04-25T03:15:40;2.37;;;1.30;;
40955;SDS011;26687;48.254;11.454;2023-04-25T03:18:40;1.65;;;1.55;;
40955;SDS011;26687;48.254;11.454;2023-04-25T03:21:40;2.95;;;1.55;;
40955;SDS011;26687;48.254;11.454;2023-04-25T03:24:40;2.40;;;1.70;;
40955;SDS011;26687;48.254;11.454;2023-04-25T03:27:40;3.08;;;1.75;;
40955;SDS011;26687;48.254;11.454;2023-04-25T03:30:41;1.70;;;1.60;;
40955;SDS011;26687;48.254;11.454;2023-04-25T03:33:41;1.50;;;1.40;;
40955;SDS011;26687;48.254;11.454;2023-04-25T03:36:41;1.97;;;1.73;;
40955;SDS011;26687;48.254;11.454;2023-04-25T03:39:41;2.37;;;1.70;;
40955;SDS011;26687;48.254;11.454;2023-04-25T03:42:41;2.70;;;1.40;;
40955;SDS011;26687;48.254;11.454;2023-04-25T03:45:42;2.70;;;1.63;;
40955;SDS011;26687;48.254;11.454;2023-04-25T03:48:42;1.52;;;1.30;;
40955;SDS011;26687;48.254;11.454;2023-04-25T03:51:42;1.60;;;1.50;;
40955;SDS011;26687;48.254;11.454;2023-04-25T03:54:42;2.37;;;1.60;;
40955;SDS011;26687;48.254;11.454;2023-04-25T03:57:43;1.70;;;1.60;;
40955;SDS011;26687;48.254;11.454;2023-04-25T04:00:43;1.70;;;1.60;;
40955;SDS011;26687;48.254;11.454;2023-04-25T04:03:43;2.60;;;1.23;;
40955;SDS011;26687;48.254;11.454;2023-04-25T04:06:43;2.33;;;1.43;;
40955;SDS011;26687;48.254;11.454;2023-04-25T04:09:43;1.20;;;1.10;;
40955;SDS011;26687;48.254;11.454;2023-04-25T04:12:44;1.77;;;1.17;;
40955;SDS011;26687;48.254;11.454;2023-04-25T04:15:44;1.80;;;1.08;;
40955;SDS011;26687;48.254;11.454;2023-04-25T04:18:45;1.23;;;0.97;;
40955;SDS011;26687;48.254;11.454;2023-04-25T04:21:45;1.40;;;0.90;;
40955;SDS011;26687;48.254;11.454;2023-04-25T04:24:45;1.50;;;1.00;;
40955;SDS011;26687;48.254;11.454;2023-04-25T04:27:46;1.20;;;1.10;;
40955;SDS011;26687;48.254;11.454;2023-04-25T04:30:47;0.98;;;0.82;;
40955;SDS011;26687;48.254;11.454;2023-04-25T04:33:47;2.67;;;1.45;;
40955;SDS011;26687;48.254;11.454;2023-04-25T04:36:47;1.67;;;1.00;;
40955;SDS011;26687;48.254;11.454;2023-04-25T04:39:48;1.73;;;1.02;;
40955;SDS011;26687;48.254;11.454;2023-04-25T04:42:48;1.70;;;0.97;;
40955;SDS011;26687;48.254;11.454;2023-04-25T04:45:49;2.10;;;1.00;;
40955;SDS011;26687;48.254;11.454;2023-04-25T04:48:50;1.33;;;0.88;;
40955;SDS011;26687;48.254;11.454;2023-04-25T04:51:50;1.17;;;0.90;;
40955;SDS011;26687;48.254;11.454;2023-04-25T04:54:50;2.40;;;1.10;;
40955;SDS011;26687;48.254;11.454;2023-04-25T04:57:50;1.80;;;1.08;;
40955;SDS011;26687;48.254;11.454;2023-04-25T05:00:51;2.03;;;1.20;;
40955;SDS011;26687;48.254;11.454;2023-04-25T05:03:51;2.08;;;1.20;;
40955;SDS011;26687;48.254;11.454;2023-04-25T05:06:51;2.03;;;1.10;;
40955;SDS011;26687;48.254;11.454;2023-04-25T05:09:52;1.55;;;0.90;;
40955;SDS011;26687;48.254;11.454;2023-04-25T05:12:52;2.40;;;1.00;;
40955;SDS011;26687;48.254;11.454;2023-04-25T05:15:52;1.83;;;0.90;;
40955;SDS011;26687;48.254;11.454;2023-04-25T05:18:52;1.35;;;1.10;;
40955;SDS011;26687;48.254;11.454;2023-04-25T05:21:52;1.65;;;1.30;;
40955;SDS011;26687;48.254;11.454;2023-04-25T05:24:53;1.87;;;0.90;;
40955;SDS011;26687;48.254;11.454;2023-04-25T05:27:53;2.17;;;1.20;;
40955;SDS011;26687;48.254;11.454;2023-04-25T05:30:53;2.20;;;1.08;;
40955;SDS011;26687;48.254;11.454;2023-04-25T05:33:53;2.03;;;1.35;;
40955;SDS011;26687;48.254;11.454;2023-04-25T05:36:53;1.20;;;1.10;;
40955;SDS011;26687;48.254;11.454;2023-04-25T05:39:54;1.55;;;1.05;;
40955;SDS011;26687;48.254;11.454;2023-04-25T05:42:54;3.10;;;1.00;;
40955;SDS011;26687;48.254;11.454;2023-04-25T05:45:54;2.28;;;1.55;;
40955;SDS011;26687;48.254;11.454;2023-04-25T05:48:55;3.17;;;1.50;;
40955;SDS011;26687;48.254;11.454;2023-04-25T05:51:55;3.78;;;1.50;;
40955;SDS011;26687;48.254;11.454;2023-04-25T05:54:55;3.23;;;1.70;;
40955;SDS011;26687;48.254;11.454;2023-04-25T05:57:55;5.25;;;1.52;;
40955;SDS011;26687;48.254;11.454;2023-04-25T06:00:55;2.55;;;1.33;;
40955;SDS011;26687;48.254;11.454;2023-04-25T06:03:55;3.65;;;1.48;;
40955;SDS011;26687;48.254;11.454;2023-04-25T06:06:56;2.88;;;1.63;;
40955;SDS011;26687;48.254;11.454;2023-04-25T06:09:56;2.35;;;1.52;;
40955;SDS011;26687;48.254;11.454;2023-04-25T06:12:56;4.30;;;1.70;;
40955;SDS011;26687;48.254;11.454;2023-04-25T06:15:56;3.42;;;1.83;;
40955;SDS011;26687;48.254;11.454;2023-04-25T06:18:56;2.97;;;1.90;;
40955;SDS011;26687;48.254;11.454;2023-04-25T06:21:57;3.83;;;1.90;;
40955;SDS011;26687;48.254;11.454;2023-04-25T06:24:57;1.92;;;1.58;;
40955;SDS011;26687;48.254;11.454;2023-04-25T06:27:58;3.38;;;1.77;;
40955;SDS011;26687;48.254;11.454;2023-04-25T06:30:59;2.72;;;1.90;;
40955;SDS011;26687;48.254;11.454;2023-04-25T06:33:59;3.70;;;2.03;;
40955;SDS011;26687;48.254;11.454;2023-04-25T06:37:00;3.65;;;2.15;;
40955;SDS011;26687;48.254;11.454;2023-04-25T06:40:00;3.70;;;1.90;;
40955;SDS011;26687;48.254;11.454;2023-04-25T06:43:00;2.17;;;1.30;;
40955;SDS011;26687;48.254;11.454;2023-04-25T06:46:00;3.22;;;1.80;;
40955;SDS011;26687;48.254;11.454;2023-04-25T06:49:00;2.28;;;1.63;;
40955;SDS011;26687;48.254;11.454;2023-04-25T06:52:01;3.60;;;1.53;;
40955;SDS011;26687;48.254;11.454;2023-04-25T06:55:01;2.90;;;1.48;;
40955;SDS011;26687;48.254;11.454;2023-04-25T06:58:01;2.75;;;1.50;;
40955;SDS011;26687;48.254;11.454;2023-04-25T07:01:01;3.42;;;1.60;;
40955;SDS011;26687;48.254;11.454;2023-04-25T07:04:01;2.53;;;1.80;;
40955;SDS011;26687;48.254;11.454;2023-04-25T07:07:02;2.67;;;1.80;;
40955;SDS011;26687;48.254;11.454;2023-04-25T07:10:03;1.70;;;1.27;;
40955;SDS011;26687;48.254;11.454;2023-04-25T07:13:03;2.85;;;1.92;;
40955;SDS011;26687;48.254;11.454;2023-04-25T07:16:04;2.23;;;1.77;;
40955;SDS011;26687;48.254;11.454;2023-04-25T07:19:04;2.53;;;2.05;;
40955;SDS011;26687;48.254;11.454;2023-04-25T07:22:05;3.13;;;1.80;;
40955;SDS011;26687;48.254;11.454;2023-04-25T07:25:05;1.88;;;1.50;;
40955;SDS011;26687;48.254;11.454;2023-04-25T07:28:06;4.13;;;1.88;;
40955;SDS011;26687;48.254;11.454;2023-04-25T07:31:06;1.57;;;1.30;;
40955;SDS011;26687;48.254;11.454;2023-04-25T07:34:06;2.83;;;1.57;;
40955;SDS011;26687;48.254;11.454;2023-04-25T07:37:06;2.77;;;1.80;;
40955;SDS011;26687;48.254;11.454;2023-04-25T07:40:07;2.10;;;1.30;;
40955;SDS011;26687;48.254;11.454;2023-04-25T07:43:08;2.42;;;1.30;;
40955;SDS011;26687;48.254;11.454;2023-04-25T07:46:09;1.83;;;1.42;;
40955;SDS011;26687;48.254;11.454;2023-04-25T07:49:09;3.20;;;1.38;;
40955;SDS011;26687;48.254;11.454;2023-04-25T07:52:10;1.70;;;1.13;;
40955;SDS011;26687;48.254;11.454;2023-04-25T07:55:10;2.67;;;1.10;;
40955;SDS011;26687;48.254;11.454;2023-04-25T07:58:11;2.72;;;1.33;;
40955;SDS011;26687;48.254;11.454;2023-04-25T08:01:11;3.80;;;1.47;;
40955;SDS011;26687;48.254;11.454;2023-04-25T08:04:11;1.48;;;1.10;;
40955;SDS011;26687;48.254;11.454;2023-04-25T08:07:11;1.73;;;1.10;;
40955;SDS011;26687;48.254;11.454;2023-04-25T08:10:12;2.42;;;1.35;;
40955;SDS011;26687;48.254;11.454;2023-04-25T08:13:12;1.85;;;1.52;;
40955;SDS011;26687;48.254;11.454;2023-04-25T08:16:12;2.23;;;1.13;;
40955;SDS011;26687;48.254;11.454;2023-04-25T08:19:12;2.13;;;1.20;;
40955;SDS011;26687;48.254;11.454;2023-04-25T08:22:12;2.30;;;1.00;;
40955;SDS011;26687;48.254;11.454;2023-04-25T08:25:13;2.20;;;0.90;;
40955;SDS011;26687;48.254;11.454;2023-04-25T08:28:13;1.35;;;0.88;;
40955;SDS011;26687;48.254;11.454;2023-04-25T08:31:13;1.08;;;0.70;;
40955;SDS011;26687;48.254;11.454;2023-04-25T08:34:13;0.83;;;0.83;;
40955;SDS011;26687;48.254;11.454;2023-04-25T08:37:13;1.92;;;0.90;;
40955;SDS011;26687;48.254;11.454;2023-04-25T08:40:14;1.57;;;0.90;;
40955;SDS011;26687;48.254;11.454;2023-04-25T08:43:14;1.33;;;0.90;;
40955;SDS011;26687;48.254;11.454;2023-04-25T08:46:17;2.70;;;1.08;;
40955;SDS011;26687;48.254;11.454;2023-04-25T08:49:17;2.27;;;0.90;;
40955;SDS011;26687;48.254;11.454;2023-04-25T08:52:21;1.05;;;0.80;;
40955;SDS011;26687;48.254;11.454;2023-04-25T08:55:21;1.63;;;1.13;;
40955;SDS011;26687;48.254;11.454;2023-04-25T08:58:22;2.25;;;1.42;;
40955;SDS011;26687;48.254;11.454;2023-04-25T09:01:22;1.17;;;1.00;;
40955;SDS011;26687;48.254;11.454;2023-04-25T09:04:23;2.40;;;0.88;;
40955;SDS011;26687;48.254;11.454;2023-04-25T09:07:23;2.00;;;0.90;;
40955;SDS011;26687;48.254;11.454;2023-04-25T09:10:25;2.13;;;1.25;;
40955;SDS011;26687;48.254;11.454;2023-04-25T09:13:26;2.08;;;1.33;;
40955;SDS011;26687;48.254;11.454;2023-04-25T09:16:27;1.02;;;0.73;;
40955;SDS011;26687;48.254;11.454;2023-04-25T09:22:30;2.55;;;1.10;;
40955;SDS011;26687;48.254;11.454;2023-04-25T09:25:34;1.23;;;0.80;;
40955;SDS011;26687;48.254;11.454;2023-04-25T09:28:35;1.50;;;0.80;;
40955;SDS011;26687;48.254;11.454;2023-04-25T09:31:37;1.13;;;0.90;;
40955;SDS011;26687;48.254;11.454;2023-04-25T09:34:41;1.53;;;0.93;;
40955;SDS011;26687;48.254;11.454;2023-04-25T09:37:42;1.58;;;0.80;;
40955;SDS011;26687;48.254;11.454;2023-04-25T09:40:42;1.20;;;0.80;;
40955;SDS011;26687;48.254;11.454;2023-04-25T09:43:44;1.95;;;0.98;;
40955;SDS011;26687;48.254;11.454;2023-04-25T09:46:46;1.70;;;0.80;;
40955;SDS011;26687;48.254;11.454;2023-04-25T09:49:52;1.20;;;0.70;;
40955;SDS011;26687;48.254;11.454;2023-04-25T09:53:05;1.02;;;0.80;;
40955;SDS011;26687;48.254;11.454;2023-04-25T09:56:06;1.60;;;0.82;;
40955;SDS011;26687;48.254;11.454;2023-04-25T09:59:07;1.52;;;0.90;;
40955;SDS011;26687;48.254;11.454;2023-04-25T10:02:08;1.83;;;1.00;;
40955;SDS011;26687;48.254;11.454;2023-04-25T10:05:09;1.35;;;0.90;;
40955;SDS011;26687;48.254;11.454;2023-04-25T10:08:10;2.22;;;0.90;;
40955;SDS011;26687;48.254;11.454;2023-04-25T10:11:11;2.78;;;1.10;;
40955;SDS011;26687;48.254;11.454;2023-04-25T10:14:14;1.35;;;0.82;;
40955;SDS011;26687;48.254;11.454;2023-04-25T10:17:14;1.55;;;1.13;;
40955;SDS011;26687;48.254;11.454;2023-04-25T10:20:15;1.95;;;1.17;;
40955;SDS011;26687;48.254;11.454;2023-04-25T10:23:15;1.47;;;1.00;;
40955;SDS011;26687;48.254;11.454;2023-04-25T10:26:16;1.48;;;1.02;;
40955;SDS011;26687;48.254;11.454;2023-04-25T10:29:26;4.10;;;0.88;;
40955;SDS011;26687;48.254;11.454;2023-04-25T10:32:26;1.00;;;0.80;;
40955;SDS011;26687;48.254;11.454;2023-04-25T10:35:27;1.30;;;0.70;;
40955;SDS011;26687;48.254;11.454;2023-04-25T10:38:27;0.80;;;0.70;;
40955;SDS011;26687;48.254;11.454;2023-04-25T10:41:28;0.60;;;0.60;;
40955;SDS011;26687;48.254;11.454;2023-04-25T10:44:29;1.27;;;0.80;;
40955;SDS011;26687;48.254;11.454;2023-04-25T10:47:36;1.35;;;0.85;;
40955;SDS011;26687;48.254;11.454;2023-04-25T10:50:42;1.93;;;1.10;;
40955;SDS011;26687;48.254;11.454;2023-04-25T10:54:02;1.50;;;1.00;;
40955;SDS011;26687;48.254;11.454;2023-04-25T10:57:02;1.20;;;1.02;;
40955;SDS011;26687;48.254;11.454;2023-04-25T11:03:15;2.08;;;0.90;;
40955;SDS011;26687;48.254;11.454;2023-04-25T11:09:16;2.97;;;1.20;;
40955;SDS011;26687;48.254;11.454;2023-04-25T11:12:16;1.83;;;0.85;;
40955;SDS011;26687;48.254;11.454;2023-04-25T11:15:17;1.63;;;1.00;;
40955;SDS011;26687;48.254;11.454;2023-04-25T11:18:17;1.48;;;1.00;;
40955;SDS011;26687;48.254;11.454;2023-04-25T11:21:18;1.38;;;1.02;;
40955;SDS011;26687;48.254;11.454;2023-04-25T11:24:18;1.57;;;1.10;;
40955;SDS011;26687;48.254;11.454;2023-04-25T11:27:19;1.95;;;1.40;;
40955;SDS011;26687;48.254;11.454;2023-04-25T11:30:19;0.80;;;0.80;;
40955;SDS011;26687;48.254;11.454;2023-04-25T11:33:23;1.38;;;1.27;;
40955;SDS011;26687;48.254;11.454;2023-04-25T11:36:23;1.85;;;1.00;;
40955;SDS011;26687;48.254;11.454;2023-04-25T11:39:24;1.48;;;0.90;;
40955;SDS011;26687;48.254;11.454;2023-04-25T11:42:25;1.85;;;0.93;;
40955;SDS011;26687;48.254;11.454;2023-04-25T11:45:25;0.70;;;0.70;;
40955;SDS011;26687;48.254;11.454;2023-04-25T11:48:25;1.30;;;0.80;;
40955;SDS011;26687;48.254;11.454;2023-04-25T11:51:25;1.25;;;0.77;;
40955;SDS011;26687;48.254;11.454;2023-04-25T11:54:26;1.60;;;0.88;;
40955;SDS011;26687;48.254;11.454;2023-04-25T11:57:26;0.40;;;0.40;;
40955;SDS011;26687;48.254;11.454;2023-04-25T12:00:26;1.60;;;1.00;;
40955;SDS011;26687;48.254;11.454;2023-04-25T12:03:29;1.15;;;0.73;;
40955;SDS011;26687;48.254;11.454;2023-04-25T12:06:31;0.90;;;0.70;;
40955;SDS011;26687;48.254;11.454;2023-04-25T12:09:32;1.25;;;0.70;;
40955;SDS011;26687;48.254;11.454;2023-04-25T12:12:36;1.25;;;0.85;;
40955;SDS011;26687;48.254;11.454;2023-04-25T12:15:36;1.80;;;0.93;;
40955;SDS011;26687;48.254;11.454;2023-04-25T12:18:40;0.73;;;0.60;;
40955;SDS011;26687;48.254;11.454;2023-04-25T12:21:41;0.90;;;0.70;;
40955;SDS011;26687;48.254;11.454;2023-04-25T12:24:44;0.70;;;0.57;;
40955;SDS011;26687;48.254;11.454;2023-04-25T12:27:44;0.70;;;0.70;;
40955;SDS011;26687;48.254;11.454;2023-04-25T12:31:18;1.77;;;0.57;;
40955;SDS011;26687;48.254;11.454;2023-04-25T12:34:11;0.82;;;0.65;;
40955;SDS011;26687;48.254;11.454;2023-04-25T12:37:12;0.85;;;0.60;;
40955;SDS011;26687;48.254;11.454;2023-04-25T12:40:12;1.20;;;0.70;;
40955;SDS011;26687;48.254;11.454;2023-04-25T12:43:13;0.70;;;0.38;;
40955;SDS011;26687;48.254;11.454;2023-04-25T12:46:13;1.23;;;0.80;;
40955;SDS011;26687;48.254;11.454;2023-04-25T12:49:13;2.73;;;0.70;;
40955;SDS011;26687;48.254;11.454;2023-04-25T12:52:13;1.02;;;0.65;;
40955;SDS011;26687;48.254;11.454;2023-04-25T12:55:14;1.37;;;0.80;;
40955;SDS011;26687;48.254;11.454;2023-04-25T12:58:14;1.08;;;0.80;;
40955;SDS011;26687;48.254;11.454;2023-04-25T13:01:15;3.35;;;1.00;;
40955;SDS011;26687;48.254;11.454;2023-04-25T13:04:15;1.80;;;1.05;;
40955;SDS011;26687;48.254;11.454;2023-04-25T13:07:15;0.70;;;0.70;;
40955;SDS011;26687;48.254;11.454;2023-04-25T13:10:16;0.45;;;0.45;;
40955;SDS011;26687;48.254;11.454;2023-04-25T13:13:17;0.75;;;0.55;;
40955;SDS011;26687;48.254;11.454;2023-04-25T13:16:18;1.05;;;0.63;;
40955;SDS011;26687;48.254;11.454;2023-04-25T13:19:20;0.60;;;0.50;;
40955;SDS011;26687;48.254;11.454;2023-04-25T13:22:21;0.70;;;0.57;;
40955;SDS011;26687;48.254;11.454;2023-04-25T13:25:21;0.73;;;0.47;;
40955;SDS011;26687;48.254;11.454;2023-04-25T13:28:21;0.40;;;0.40;;
40955;SDS011;26687;48.254;11.454;2023-04-25T13:31:22;1.48;;;0.50;;
40955;SDS011;26687;48.254;11.454;2023-04-25T13:34:22;1.20;;;0.38;;
40955;SDS011;26687;48.254;11.454;2023-04-25T13:37:22;0.90;;;0.40;;
40955;SDS011;26687;48.254;11.454;2023-04-25T13:40:24;1.60;;;0.38;;
40955;SDS011;26687;48.254;11.454;2023-04-25T13:43:24;0.68;;;0.40;;
40955;SDS011;26687;48.254;11.454;2023-04-25T13:46:24;0.53;;;0.43;;
40955;SDS011;26687;48.254;11.454;2023-04-25T13:49:24;1.02;;;0.50;;
40955;SDS011;26687;48.254;11.454;2023-04-25T13:52:25;0.77;;;0.63;;
40955;SDS011;26687;48.254;11.454;2023-04-25T13:55:25;0.75;;;0.65;;
40955;SDS011;26687;48.254;11.454;2023-04-25T13:58:26;0.60;;;0.50;;
40955;SDS011;26687;48.254;11.454;2023-04-25T14:01:26;0.40;;;0.40;;
40955;SDS011;26687;48.254;11.454;2023-04-25T14:04:28;0.60;;;0.45;;
40955;SDS011;26687;48.254;11.454;2023-04-25T14:07:29;0.60;;;0.60;;
40955;SDS011;26687;48.254;11.454;2023-04-25T14:10:30;0.50;;;0.50;;
40955;SDS011;26687;48.254;11.454;2023-04-25T14:13:30;0.50;;;0.50;;
40955;SDS011;26687;48.254;11.454;2023-04-25T14:16:30;0.73;;;0.63;;
40955;SDS011;26687;48.254;11.454;2023-04-25T14:19:31;0.70;;;0.60;;
40955;SDS011;26687;48.254;11.454;2023-04-25T14:22:31;0.70;;;0.70;;
40955;SDS011;26687;48.254;11.454;2023-04-25T14:25:32;0.60;;;0.50;;
40955;SDS011;26687;48.254;11.454;2023-04-25T14:28:32;0.50;;;0.50;;
40955;SDS011;26687;48.254;11.454;2023-04-25T14:31:32;0.40;;;0.40;;
40955;SDS011;26687;48.254;11.454;2023-04-25T14:34:33;0.47;;;0.30;;
40955;SDS011;26687;48.254;11.454;2023-04-25T14:37:33;0.40;;;0.40;;
40955;SDS011;26687;48.254;11.454;2023-04-25T14:40:33;0.70;;;0.40;;
40955;SDS011;26687;48.254;11.454;2023-04-25T14:43:33;0.33;;;0.33;;
40955;SDS011;26687;48.254;11.454;2023-04-25T14:46:33;1.02;;;0.82;;
40955;SDS011;26687;48.254;11.454;2023-04-25T14:49:34;1.47;;;1.30;;
40955;SDS011;26687;48.254;11.454;2023-04-25T14:52:34;0.60;;;0.60;;
40955;SDS011;26687;48.254;11.454;2023-04-25T14:55:34;0.80;;;0.80;;
40955;SDS011;26687;48.254;11.454;2023-04-25T14:58:34;1.10;;;0.47;;
40955;SDS011;26687;48.254;11.454;2023-04-25T15:01:35;0.50;;;0.50;;
40955;SDS011;26687;48.254;11.454;2023-04-25T15:04:35;0.60;;;0.60;;
40955;SDS011;26687;48.254;11.454;2023-04-25T15:07:35;0.80;;;0.80;;
40955;SDS011;26687;48.254;11.454;2023-04-25T15:10:35;0.70;;;0.70;;
40955;SDS011;26687;48.254;11.454;2023-04-25T15:13:36;2.05;;;0.90;;
40955;SDS011;26687;48.254;11.454;2023-04-25T15:16:36;1.80;;;1.00;;
40955;SDS011;26687;48.254;11.454;2023-04-25T15:19:36;1.33;;;0.93;;
40955;SDS011;26687;48.254;11.454;2023-04-25T15:22:37;1.37;;;1.27;;
40955;SDS011;26687;48.254;11.454;2023-04-25T15:25:37;0.85;;;0.85;;
40955;SDS011;26687;48.254;11.454;2023-04-25T15:28:37;1.30;;;1.20;;
40955;SDS011;26687;48.254;11.454;2023-04-25T15:31:37;1.30;;;1.10;;
40955;SDS011;26687;48.254;11.454;2023-04-25T15:34:38;1.08;;;1.00;;
40955;SDS011;26687;48.254;11.454;2023-04-25T15:37:38;0.93;;;0.93;;
40955;SDS011;26687;48.254;11.454;2023-04-25T15:40:38;0.87;;;0.80;;
40955;SDS011;26687;48.254;11.454;2023-04-25T15:43:38;1.07;;;0.90;;
40955;SDS011;26687;48.254;11.454;2023-04-25T15:46:39;1.10;;;1.00;;
40955;SDS011;26687;48.254;11.454;2023-04-25T15:49:39;1.97;;;1.00;;
40955;SDS011;26687;48.254;11.454;2023-04-25T15:52:40;3.42;;;1.60;;
40955;SDS011;26687;48.254;11.454;2023-04-25T15:55:40;1.65;;;1.38;;
40955;SDS011;26687;48.254;11.454;2023-04-25T15:58:41;1.47;;;1.37;;
40955;SDS011;26687;48.254;11.454;2023-04-25T16:01:41;2.08;;;1.30;;
40955;SDS011;26687;48.254;11.454;2023-04-25T16:04:41;1.97;;;1.80;;
40955;SDS011;26687;48.254;11.454;2023-04-25T16:07:42;1.70;;;1.60;;
40955;SDS011;26687;48.254;11.454;2023-04-25T16:10:42;1.75;;;1.65;;
40955;SDS011;26687;48.254;11.454;2023-04-25T16:13:42;1.67;;;1.57;;
40955;SDS011;26687;48.254;11.454;2023-04-25T16:16:42;1.50;;;1.40;;
40955;SDS011;26687;48.254;11.454;2023-04-25T16:19:43;2.33;;;1.70;;
40955;SDS011;26687;48.254;11.454;2023-04-25T16:22:44;2.03;;;1.83;;
40955;SDS011;26687;48.254;11.454;2023-04-25T16:25:44;2.03;;;1.83;;
40955;SDS011;26687;48.254;11.454;2023-04-25T16:28:44;1.80;;;1.65;;
40955;SDS011;26687;48.254;11.454;2023-04-25T16:31:44;2.20;;;2.00;;
40955;SDS011;26687;48.254;11.454;2023-04-25T16:34:46;1.95;;;1.77;;
40955;SDS011;26687;48.254;11.454;2023-04-25T16:37:46;2.25;;;2.05;;
40955;SDS011;26687;48.254;11.454;2023-04-25T16:40:46;1.70;;;1.60;;
40955;SDS011;26687;48.254;11.454;2023-04-25T16:43:47;1.80;;;1.70;;
40955;SDS011;26687;48.254;11.454;2023-04-25T16:46:47;1.90;;;1.80;;
40955;SDS011;26687;48.254;11.454;2023-04-25T16:49:47;1.77;;;1.67;;
40955;SDS011;26687;48.254;11.454;2023-04-25T16:52:48;2.50;;;1.90;;
40955;SDS011;26687;48.254;11.454;2023-04-25T16:55:48;1.80;;;1.70;;
40955;SDS011;26687;48.254;11.454;2023-04-25T16:58:49;2.60;;;2.40;;
40955;SDS011;26687;48.254;11.454;2023-04-25T17:01:49;2.13;;;1.92;;
40955;SDS011;26687;48.254;11.454;2023-04-25T17:04:50;3.15;;;1.98;;
40955;SDS011;26687;48.254;11.454;2023-04-25T17:07:50;2.43;;;2.23;;
40955;SDS011;26687;48.254;11.454;2023-04-25T17:10:51;2.50;;;1.90;;
40955;SDS011;26687;48.254;11.454;2023-04-25T17:13:51;2.47;;;2.28;;
40955;SDS011;26687;48.254;11.454;2023-04-25T17:16:52;3.22;;;2.85;;
40955;SDS011;26687;48.254;11.454;2023-04-25T17:19:52;2.45;;;2.20;;
40955;SDS011;26687;48.254;11.454;2023-04-25T17:22:52;2.50;;;2.30;;
40955;SDS011;26687;48.254;11.454;2023-04-25T17:25:52;2.70;;;2.40;;
40955;SDS011;26687;48.254;11.454;2023-04-25T17:28:53;2.33;;;2.13;;
40955;SDS011;26687;48.254;11.454;2023-04-25T17:31:53;2.87;;;2.63;;
40955;SDS011;26687;48.254;11.454;2023-04-25T17:34:53;3.47;;;2.80;;
40955;SDS011;26687;48.254;11.454;2023-04-25T17:37:54;2.83;;;2.55;;
40955;SDS011;26687;48.254;11.454;2023-04-25T17:40:54;3.63;;;2.75;;
40955;SDS011;26687;48.254;11.454;2023-04-25T17:43:54;2.73;;;2.50;;
40955;SDS011;26687;48.254;11.454;2023-04-25T17:46:55;4.20;;;2.80;;
40955;SDS011;26687;48.254;11.454;2023-04-25T17:49:55;3.13;;;2.83;;
40955;SDS011;26687;48.254;11.454;2023-04-25T17:52:56;3.13;;;2.67;;
40955;SDS011;26687;48.254;11.454;2023-04-25T17:55:57;3.17;;;2.70;;
40955;SDS011;26687;48.254;11.454;2023-04-25T17:58:57;2.67;;;2.20;;